createdAt,value
2019-01-14T00:00:14.179Z,3.63
2019-01-14T00:02:41.634Z,2.47
2019-01-14T00:05:09.145Z,2.50
2019-01-14T00:07:37.474Z,2.57
2019-01-14T00:10:04.990Z,2.53
2019-01-14T00:12:32.496Z,2.60
2019-01-14T00:14:59.977Z,2.30
2019-01-14T00:17:27.433Z,2.37
2019-01-14T00:19:54.891Z,2.47
2019-01-14T00:22:22.349Z,2.80
2019-01-14T00:24:49.835Z,2.90
2019-01-14T00:27:17.313Z,2.37
2019-01-14T00:29:44.774Z,2.37
2019-01-14T00:32:12.234Z,2.10
2019-01-14T00:34:39.671Z,2.63
2019-01-14T00:37:07.140Z,2.80
2019-01-14T00:39:34.583Z,2.17
2019-01-14T00:42:02.025Z,2.62
2019-01-14T00:44:29.462Z,2.10
2019-01-14T00:46:56.877Z,2.47
2019-01-14T00:49:24.314Z,2.20
2019-01-14T00:51:52.074Z,2.37
2019-01-14T00:54:21.388Z,1.80
2019-01-14T00:56:48.893Z,2.60
2019-01-14T00:59:16.554Z,2.42
2019-01-14T01:01:44.089Z,1.90
2019-01-14T01:04:11.529Z,2.10
2019-01-14T01:06:39.780Z,1.83
2019-01-14T01:09:07.411Z,1.80
2019-01-14T01:11:34.986Z,1.63
2019-01-14T01:14:02.874Z,1.67
2019-01-14T01:16:30.379Z,2.12
2019-01-14T01:18:58.717Z,1.80
2019-01-14T01:21:26.186Z,2.05
2019-01-14T01:23:53.631Z,1.67
2019-01-14T01:26:21.193Z,2.00
2019-01-14T01:28:48.663Z,2.00
2019-01-14T01:31:16.677Z,1.55
2019-01-14T01:33:44.467Z,2.33
2019-01-14T01:36:11.945Z,1.97
2019-01-14T01:38:39.396Z,2.00
2019-01-14T01:41:06.871Z,2.70
2019-01-14T01:43:34.490Z,2.30
2019-01-14T01:46:01.955Z,2.67
2019-01-14T01:48:29.363Z,2.80
2019-01-14T01:50:56.861Z,1.87
2019-01-14T01:53:24.285Z,2.77
2019-01-14T01:55:51.736Z,1.80
2019-01-14T01:58:19.195Z,2.70
2019-01-14T02:00:47.034Z,2.33
2019-01-14T02:03:14.455Z,2.10
2019-01-14T02:05:41.906Z,1.95
2019-01-14T02:08:09.338Z,1.70
2019-01-14T02:10:36.790Z,1.60
2019-01-14T02:13:04.251Z,1.60
2019-01-14T02:15:32.827Z,1.57
2019-01-14T02:18:00.359Z,1.50
2019-01-14T02:20:27.807Z,1.45
2019-01-14T02:22:56.227Z,1.50
2019-01-14T02:25:22.727Z,1.13
2019-01-14T02:27:50.165Z,1.70
2019-01-14T02:30:17.601Z,1.60
2019-01-14T02:32:45.069Z,1.43
2019-01-14T02:35:12.479Z,1.60
2019-01-14T02:37:39.927Z,1.97
2019-01-14T02:40:08.929Z,1.53
2019-01-14T02:42:36.374Z,1.87
2019-01-14T02:45:03.846Z,1.70
2019-01-14T02:47:31.276Z,1.62
2019-01-14T02:49:59.575Z,1.65
2019-01-14T02:52:27.123Z,1.70
2019-01-14T02:54:54.537Z,1.77
2019-01-14T02:57:21.951Z,2.03
2019-01-14T02:59:49.409Z,1.50
2019-01-14T03:02:17.874Z,1.08
2019-01-14T03:04:45.322Z,1.53
2019-01-14T03:07:12.762Z,1.60
2019-01-14T03:09:40.184Z,1.63
2019-01-14T03:12:07.602Z,1.57
2019-01-14T03:14:35.090Z,1.63
2019-01-14T03:17:02.522Z,1.20
2019-01-14T03:19:29.970Z,1.80
2019-01-14T03:21:57.465Z,1.55
2019-01-14T03:24:25.783Z,1.53
2019-01-14T03:26:53.290Z,1.43
2019-01-14T03:29:20.735Z,1.20
2019-01-14T03:31:48.176Z,1.90
2019-01-14T03:34:15.607Z,1.60
2019-01-14T03:36:44.552Z,2.10
2019-01-14T03:39:12.071Z,1.87
2019-01-14T03:41:39.505Z,2.27
2019-01-14T03:44:06.939Z,2.17
2019-01-14T03:46:34.385Z,2.27
2019-01-14T03:49:03.363Z,2.00
2019-01-14T03:51:30.825Z,2.12
2019-01-14T03:53:58.250Z,2.20
2019-01-14T03:56:25.689Z,2.23
2019-01-14T03:58:53.156Z,2.50
2019-01-14T04:01:20.627Z,2.23
2019-01-14T04:03:48.075Z,1.87
2019-01-14T04:06:15.503Z,2.33
2019-01-14T04:08:44.246Z,1.90
2019-01-14T04:11:11.969Z,2.30
2019-01-14T04:13:39.481Z,2.00
2019-01-14T04:16:06.903Z,2.50
2019-01-14T04:18:34.334Z,2.23
2019-01-14T04:21:01.765Z,3.27
2019-01-14T04:23:29.222Z,3.20
2019-01-14T04:25:56.641Z,3.50
2019-01-14T04:28:24.089Z,3.80
2019-01-14T04:30:51.510Z,3.80
2019-01-14T04:33:18.963Z,3.50
2019-01-14T04:35:46.397Z,3.17
2019-01-14T04:38:13.867Z,3.43
2019-01-14T04:40:41.302Z,4.30
2019-01-14T04:43:09.303Z,3.37
2019-01-14T04:45:36.735Z,3.37
2019-01-14T04:48:04.187Z,4.20
2019-01-14T04:50:31.663Z,4.80
2019-01-14T04:52:59.108Z,5.10
2019-01-14T04:55:26.560Z,4.97
2019-01-14T04:57:53.995Z,4.40
2019-01-14T05:00:21.451Z,5.03
2019-01-14T05:02:48.879Z,3.87
2019-01-14T05:05:16.346Z,3.90
2019-01-14T05:07:43.790Z,3.97
2019-01-14T05:10:18.882Z,3.87
2019-01-14T05:12:46.381Z,3.90
2019-01-14T05:15:13.842Z,3.43
2019-01-14T05:17:41.262Z,4.30
2019-01-14T05:20:09.670Z,4.70
2019-01-14T05:22:37.148Z,4.00
2019-01-14T05:25:04.595Z,3.87
2019-01-14T05:27:32.016Z,3.55
2019-01-14T05:29:59.461Z,3.60
2019-01-14T05:32:26.931Z,3.50
2019-01-14T05:34:55.336Z,1.60
2019-01-14T05:37:22.854Z,3.42
2019-01-14T05:39:50.286Z,3.60
2019-01-14T05:42:17.767Z,3.67
2019-01-14T05:44:45.191Z,3.77
2019-01-14T05:47:12.620Z,3.27
2019-01-14T05:49:40.078Z,3.27
2019-01-14T05:52:07.523Z,2.90
2019-01-14T05:54:34.946Z,2.93
2019-01-14T05:57:03.242Z,2.70
2019-01-14T05:59:30.684Z,3.40
2019-01-14T06:01:58.136Z,3.40
2019-01-14T06:04:25.597Z,2.83
2019-01-14T06:06:53.057Z,3.25
2019-01-14T06:09:20.491Z,4.10
2019-01-14T06:11:47.983Z,3.33
2019-01-14T06:14:15.401Z,3.80
2019-01-14T06:16:42.849Z,3.40
2019-01-14T06:19:10.305Z,3.80
2019-01-14T06:21:37.753Z,4.23
2019-01-14T06:24:05.186Z,3.30
2019-01-14T06:26:32.637Z,3.73
2019-01-14T06:29:00.061Z,4.27
2019-01-14T06:31:28.109Z,4.57
2019-01-14T06:33:55.552Z,4.70
2019-01-14T06:36:22.968Z,4.83
2019-01-14T06:38:50.450Z,5.63
2019-01-14T06:41:17.896Z,4.77
2019-01-14T06:43:45.391Z,4.80
2019-01-14T06:46:12.816Z,4.07
2019-01-14T06:48:40.322Z,4.13
2019-01-14T06:51:07.778Z,3.80
2019-01-14T06:53:35.207Z,3.77
2019-01-14T06:56:03.241Z,4.17
2019-01-14T06:58:30.727Z,3.43
2019-01-14T07:00:58.251Z,2.90
2019-01-14T07:03:25.732Z,2.80
2019-01-14T07:05:53.175Z,2.83
2019-01-14T07:08:20.601Z,2.50
2019-01-14T07:10:48.062Z,2.53
2019-01-14T07:13:15.491Z,2.20
2019-01-14T07:15:42.936Z,2.63
2019-01-14T07:18:10.392Z,2.63
2019-01-14T07:20:37.798Z,2.53
2019-01-14T07:23:05.241Z,2.50
2019-01-14T07:25:32.675Z,2.45
2019-01-14T07:28:00.171Z,2.83
2019-01-14T07:30:27.661Z,3.20
2019-01-14T07:32:55.123Z,3.73
2019-01-14T07:35:22.574Z,3.07
2019-01-14T07:37:49.997Z,2.70
2019-01-14T07:40:17.461Z,1.43
2019-01-14T07:42:44.932Z,2.10
2019-01-14T07:45:12.405Z,2.20
2019-01-14T07:47:39.849Z,2.42
2019-01-14T07:50:07.275Z,2.43
2019-01-14T07:52:35.323Z,2.58
2019-01-14T07:55:02.798Z,2.10
2019-01-14T07:57:30.244Z,1.73
2019-01-14T07:59:57.686Z,2.50
2019-01-14T08:02:25.141Z,2.35
2019-01-14T08:04:52.557Z,1.97
2019-01-14T08:07:20.264Z,2.57
2019-01-14T08:09:47.706Z,1.90
2019-01-14T08:12:15.171Z,2.10
2019-01-14T08:14:42.827Z,1.63
2019-01-14T08:17:10.117Z,1.87
2019-01-14T08:19:37.582Z,1.85
2019-01-14T08:22:05.030Z,2.10
2019-01-14T08:24:32.485Z,1.93
2019-01-14T08:26:59.979Z,2.10
2019-01-14T08:29:27.429Z,2.10
2019-01-14T08:31:54.919Z,2.10
2019-01-14T08:34:22.390Z,2.40
2019-01-14T08:36:50.432Z,2.35
2019-01-14T08:39:17.871Z,2.00
2019-01-14T08:41:45.279Z,2.27
2019-01-14T08:44:12.740Z,1.90
2019-01-14T08:46:40.198Z,2.47
2019-01-14T08:49:08.443Z,1.93
2019-01-14T08:51:36.001Z,2.10
2019-01-14T08:54:03.435Z,1.90
2019-01-14T08:56:30.854Z,1.85
2019-01-14T08:58:58.301Z,2.00
2019-01-14T09:01:25.766Z,2.35
2019-01-14T09:03:53.223Z,1.83
2019-01-14T09:06:20.654Z,2.27
2019-01-14T09:08:48.090Z,2.10
2019-01-14T09:11:15.530Z,2.60
2019-01-14T09:13:42.998Z,2.57
2019-01-14T09:16:10.435Z,3.03
2019-01-14T09:18:37.895Z,2.60
2019-01-14T09:21:05.327Z,2.43
2019-01-14T09:23:32.780Z,3.15
2019-01-14T09:26:00.234Z,3.17
2019-01-14T09:28:27.722Z,2.63
2019-01-14T09:30:55.167Z,2.35
2019-01-14T09:33:22.603Z,2.73
2019-01-14T09:35:50.907Z,3.80
2019-01-14T09:38:18.333Z,2.43
2019-01-14T09:40:45.771Z,2.73
2019-01-14T09:43:13.212Z,3.07
2019-01-14T09:45:40.690Z,3.10
2019-01-14T09:48:08.171Z,3.07
2019-01-14T09:50:35.636Z,2.87
2019-01-14T09:53:03.058Z,3.03
2019-01-14T09:55:30.547Z,2.53
2019-01-14T09:57:58.012Z,3.00
2019-01-14T10:00:25.455Z,2.80
2019-01-14T10:02:55.599Z,2.90
2019-01-14T10:05:21.256Z,2.15
2019-01-14T10:07:48.722Z,1.77
2019-01-14T10:10:16.160Z,2.50
2019-01-14T10:12:43.638Z,2.07
2019-01-14T10:15:12.537Z,1.97
2019-01-14T10:17:39.976Z,2.50
2019-01-14T10:20:07.464Z,1.70
2019-01-14T10:22:34.964Z,2.23
2019-01-14T10:25:02.442Z,2.10
2019-01-14T10:27:29.896Z,1.98
2019-01-14T10:29:57.349Z,2.47
2019-01-14T10:32:25.840Z,2.17
2019-01-14T10:34:54.307Z,1.90
2019-01-14T10:37:23.023Z,1.70
2019-01-14T10:39:51.412Z,2.13
2019-01-14T10:42:20.143Z,1.90
2019-01-14T10:44:48.628Z,2.17
2019-01-14T10:47:17.039Z,2.20
2019-01-14T10:49:45.555Z,1.87
2019-01-14T10:52:14.209Z,2.30
2019-01-14T10:54:42.739Z,2.27
2019-01-14T10:57:11.310Z,2.40
2019-01-14T10:59:39.797Z,2.70
2019-01-14T11:02:08.404Z,1.08
2019-01-14T11:04:36.812Z,2.30
2019-01-14T11:07:05.407Z,1.93
2019-01-14T11:09:33.865Z,2.77
2019-01-14T11:12:02.407Z,2.12
2019-01-14T11:14:30.986Z,2.08
2019-01-14T11:16:58.550Z,1.80
2019-01-14T11:19:25.979Z,2.03
2019-01-14T11:21:53.429Z,2.00
2019-01-14T11:24:20.877Z,1.60
2019-01-14T11:26:48.326Z,1.80
2019-01-14T11:29:15.798Z,1.93
2019-01-14T11:31:43.254Z,2.37
2019-01-14T11:34:10.738Z,1.80
2019-01-14T11:36:38.162Z,1.70
2019-01-14T11:39:05.621Z,2.05
2019-01-14T11:41:33.106Z,1.02
2019-01-14T11:44:00.581Z,1.70
2019-01-14T11:46:28.817Z,1.53
2019-01-14T11:48:56.355Z,1.60
2019-01-14T11:51:24.786Z,1.62
2019-01-14T11:53:52.963Z,1.62
2019-01-14T11:56:20.395Z,1.93
2019-01-14T11:58:47.891Z,2.08
2019-01-14T12:01:15.324Z,1.57
2019-01-14T12:03:42.755Z,1.30
2019-01-14T12:06:10.176Z,1.27
2019-01-14T12:08:37.627Z,1.50
2019-01-14T12:11:05.105Z,1.33
2019-01-14T12:13:32.582Z,1.60
2019-01-14T12:16:00.089Z,1.80
2019-01-14T12:18:27.534Z,1.83
2019-01-14T12:20:54.956Z,0.87
2019-01-14T12:23:23.199Z,1.48
2019-01-14T12:25:50.638Z,1.37
2019-01-14T12:28:18.090Z,1.27
2019-01-14T12:30:45.537Z,1.50
2019-01-14T12:33:12.979Z,1.33
2019-01-14T12:35:40.421Z,1.60
2019-01-14T12:38:07.866Z,1.40
2019-01-14T12:40:35.306Z,1.50
2019-01-14T12:43:02.806Z,1.40
2019-01-14T12:45:30.245Z,1.50
2019-01-14T12:47:57.712Z,2.03
2019-01-14T12:50:25.171Z,1.23
2019-01-14T12:52:53.439Z,1.73
2019-01-14T12:55:22.288Z,1.10
2019-01-14T12:57:49.810Z,1.77
2019-01-14T13:00:18.959Z,1.40
2019-01-14T13:02:46.394Z,2.07
2019-01-14T13:05:13.843Z,1.90
2019-01-14T13:07:41.256Z,1.73
2019-01-14T13:10:08.707Z,1.70
2019-01-14T13:12:36.138Z,1.43
2019-01-14T13:15:03.585Z,1.90
2019-01-14T13:17:31.022Z,1.50
2019-01-14T13:19:58.498Z,1.48
2019-01-14T13:22:25.927Z,1.03
2019-01-14T13:24:53.661Z,1.30
2019-01-14T13:27:21.145Z,0.93
2019-01-14T13:29:48.607Z,1.60
2019-01-14T13:32:16.046Z,1.40
2019-01-14T13:34:44.820Z,1.90
2019-01-14T13:37:10.996Z,1.85
2019-01-14T13:39:38.423Z,1.20
2019-01-14T13:42:07.505Z,1.47
2019-01-14T13:44:34.991Z,1.05
2019-01-14T13:47:02.469Z,1.90
2019-01-14T13:49:29.932Z,1.27
2019-01-14T13:51:57.401Z,1.60
2019-01-14T13:54:24.849Z,1.05
2019-01-14T13:56:52.320Z,0.60
2019-01-14T13:59:19.764Z,2.00
2019-01-14T14:01:47.248Z,1.90
2019-01-14T14:04:14.715Z,1.50
2019-01-14T14:06:42.149Z,1.67
2019-01-14T14:09:09.608Z,1.40
2019-01-14T14:11:37.044Z,0.73
2019-01-14T14:14:04.516Z,1.50
2019-01-14T14:16:32.972Z,1.00
2019-01-14T14:19:00.438Z,1.20
2019-01-14T14:21:27.887Z,1.30
2019-01-14T14:23:55.301Z,0.97
2019-01-14T14:26:22.762Z,1.50
2019-01-14T14:28:50.201Z,1.40
2019-01-14T14:31:17.650Z,1.53
2019-01-14T14:33:45.073Z,1.30
2019-01-14T14:36:12.535Z,1.30
2019-01-14T14:38:40.910Z,1.25
2019-01-14T14:41:08.377Z,1.62
2019-01-14T14:43:35.829Z,1.50
2019-01-14T14:46:03.299Z,1.30
2019-01-14T14:48:30.761Z,1.17
2019-01-14T14:50:58.215Z,1.57
2019-01-14T14:53:25.693Z,1.30
2019-01-14T14:55:53.254Z,1.40
2019-01-14T14:58:20.846Z,1.33
2019-01-14T15:00:48.273Z,1.77
2019-01-14T15:03:15.744Z,1.57
2019-01-14T15:05:44.064Z,1.40
2019-01-14T15:08:11.587Z,1.30
2019-01-14T15:10:39.011Z,2.13
2019-01-14T15:13:06.472Z,1.87
2019-01-14T15:15:33.921Z,1.95
2019-01-14T15:18:01.390Z,1.60
2019-01-14T15:20:28.833Z,1.87
2019-01-14T15:22:56.282Z,1.93
2019-01-14T15:25:24.738Z,1.80
2019-01-14T15:27:52.195Z,2.07
2019-01-14T15:30:20.989Z,1.60
2019-01-14T15:32:48.426Z,1.57
2019-01-14T15:35:15.884Z,1.73
2019-01-14T15:37:43.318Z,0.87
2019-01-14T15:40:10.852Z,2.10
2019-01-14T15:42:38.323Z,1.83
2019-01-14T15:45:05.762Z,1.50
2019-01-14T15:47:33.227Z,1.63
2019-01-14T15:50:00.656Z,1.50
2019-01-14T15:52:28.153Z,2.03
2019-01-14T15:54:55.614Z,1.63
2019-01-14T15:57:23.062Z,1.20
2019-01-14T15:59:50.505Z,2.00
2019-01-14T16:02:17.953Z,1.60
2019-01-14T16:04:45.410Z,1.77
2019-01-14T16:07:12.865Z,2.03
2019-01-14T16:09:40.279Z,1.47
2019-01-14T16:12:07.720Z,1.17
2019-01-14T16:14:35.166Z,1.60
2019-01-14T16:17:02.655Z,1.85
2019-01-14T16:19:30.102Z,1.70
2019-01-14T16:21:57.558Z,1.83
2019-01-14T16:24:25.223Z,1.62
2019-01-14T16:26:52.649Z,1.70
2019-01-14T16:29:20.121Z,2.10
2019-01-14T16:31:47.561Z,1.40
2019-01-14T16:34:14.998Z,2.13
2019-01-14T16:36:43.365Z,2.17
2019-01-14T16:39:10.917Z,1.80
2019-01-14T16:41:38.354Z,1.90
2019-01-14T16:44:05.855Z,2.07
2019-01-14T16:46:34.170Z,2.05
2019-01-14T16:49:01.618Z,1.60
2019-01-14T16:51:29.075Z,2.20
2019-01-14T16:53:56.511Z,2.03
2019-01-14T16:56:23.981Z,2.13
2019-01-14T16:58:51.448Z,1.50
2019-01-14T17:01:18.874Z,1.40
2019-01-14T17:03:46.326Z,2.07
2019-01-14T17:06:13.792Z,2.23
2019-01-14T17:08:41.212Z,2.42
2019-01-14T17:11:08.651Z,1.67
2019-01-14T17:13:36.114Z,1.55
2019-01-14T17:16:03.563Z,1.83
2019-01-14T17:18:31.003Z,2.37
2019-01-14T17:20:58.434Z,1.70
2019-01-14T17:23:25.898Z,1.70
2019-01-14T17:25:53.357Z,2.20
2019-01-14T17:28:20.774Z,2.50
2019-01-14T17:30:48.198Z,2.10
2019-01-14T17:33:15.640Z,2.13
2019-01-14T17:35:43.102Z,1.70
2019-01-14T17:38:10.557Z,1.80
2019-01-14T17:40:37.984Z,1.83
2019-01-14T17:43:05.449Z,1.67
2019-01-14T17:45:32.926Z,1.80
2019-01-14T17:48:00.359Z,1.73
2019-01-14T17:50:27.771Z,2.00
2019-01-14T17:52:56.084Z,1.67
2019-01-14T17:55:23.515Z,2.30
2019-01-14T17:57:50.977Z,1.98
2019-01-14T18:00:18.437Z,2.10
2019-01-14T18:02:45.844Z,1.80
2019-01-14T18:05:13.260Z,2.10
2019-01-14T18:07:40.710Z,1.63
2019-01-14T18:10:08.188Z,1.90
2019-01-14T18:12:35.595Z,2.30
2019-01-14T18:15:03.032Z,1.67
2019-01-14T18:17:30.474Z,2.20
2019-01-14T18:19:57.903Z,2.20
2019-01-14T18:22:26.265Z,2.15
2019-01-14T18:24:53.704Z,2.00
2019-01-14T18:27:21.171Z,1.67
2019-01-14T18:29:48.613Z,1.80
2019-01-14T18:32:16.075Z,1.70
2019-01-14T18:34:43.548Z,1.67
2019-01-14T18:37:10.965Z,2.20
2019-01-14T18:39:38.457Z,2.00
2019-01-14T18:42:05.913Z,1.90
2019-01-14T18:44:33.355Z,2.12
2019-01-14T18:47:02.184Z,2.05
2019-01-14T18:49:29.731Z,2.30
2019-01-14T18:51:57.171Z,2.20
2019-01-14T18:54:24.594Z,1.90
2019-01-14T18:56:52.057Z,2.30
2019-01-14T18:59:19.494Z,2.20
2019-01-14T19:01:47.767Z,1.90
2019-01-14T19:04:15.191Z,2.20
2019-01-14T19:06:42.664Z,2.22
2019-01-14T19:09:10.113Z,2.23
2019-01-14T19:11:37.546Z,2.37
2019-01-14T19:14:05.017Z,1.65
2019-01-14T19:16:32.504Z,2.43
2019-01-14T19:18:59.930Z,2.33
2019-01-14T19:21:27.383Z,2.53
2019-01-14T19:23:55.653Z,2.70
2019-01-14T19:26:23.178Z,2.67
2019-01-14T19:28:51.173Z,2.40
2019-01-14T19:31:18.619Z,2.50
2019-01-14T19:33:46.062Z,2.20
2019-01-14T19:36:13.553Z,2.43
2019-01-14T19:38:40.992Z,2.90
2019-01-14T19:41:08.425Z,2.57
2019-01-14T19:43:35.877Z,2.90
2019-01-14T19:46:03.331Z,2.50
2019-01-14T19:48:30.815Z,3.20
2019-01-14T19:50:58.232Z,2.90
2019-01-14T19:53:25.681Z,2.90
2019-01-14T19:55:53.121Z,2.77
2019-01-14T19:58:20.591Z,2.60
2019-01-14T20:00:48.010Z,2.97
2019-01-14T20:03:17.338Z,2.53
2019-01-14T20:05:44.865Z,2.65
2019-01-14T20:08:12.311Z,2.85
2019-01-14T20:10:40.652Z,2.97
2019-01-14T20:13:08.552Z,2.67
2019-01-14T20:15:35.981Z,2.78
2019-01-14T20:18:03.446Z,2.87
2019-01-14T20:20:30.904Z,2.63
2019-01-14T20:22:58.585Z,2.67
2019-01-14T20:25:25.837Z,2.23
2019-01-14T20:27:53.340Z,3.00
2019-01-14T20:30:20.779Z,3.20
2019-01-14T20:32:48.234Z,3.07
2019-01-14T20:35:16.473Z,3.07
2019-01-14T20:37:43.923Z,3.03
2019-01-14T20:40:11.403Z,3.10
2019-01-14T20:42:38.879Z,2.70
2019-01-14T20:45:06.349Z,2.30
2019-01-14T20:47:33.813Z,3.05
2019-01-14T20:50:01.988Z,3.13
2019-01-14T20:52:29.524Z,2.65
2019-01-14T20:54:57.651Z,1.95
2019-01-14T20:57:25.084Z,3.20
2019-01-14T20:59:52.518Z,2.25
2019-01-14T21:02:19.969Z,2.97
2019-01-14T21:04:47.422Z,2.80
2019-01-14T21:07:14.836Z,2.33
2019-01-14T21:09:42.784Z,2.13
2019-01-14T21:12:10.219Z,2.97
2019-01-14T21:14:37.678Z,2.78
2019-01-14T21:17:05.113Z,2.60
2019-01-14T21:19:32.550Z,2.63
2019-01-14T21:22:00.010Z,3.00
2019-01-14T21:24:27.988Z,2.45
2019-01-14T21:26:55.489Z,3.10
2019-01-14T21:29:25.994Z,3.30
2019-01-14T21:31:50.432Z,3.10
2019-01-14T21:34:17.898Z,2.30
2019-01-14T21:36:45.425Z,2.83
2019-01-14T21:39:12.893Z,2.47
2019-01-14T21:41:40.314Z,2.90
2019-01-14T21:44:07.837Z,2.70
2019-01-14T21:46:35.744Z,2.37
2019-01-14T21:49:03.393Z,2.70
2019-01-14T21:51:31.824Z,2.87
2019-01-14T21:53:59.495Z,2.50
2019-01-14T21:56:26.949Z,2.90
2019-01-14T21:58:54.471Z,2.50
2019-01-14T22:01:22.367Z,2.50
2019-01-14T22:03:50.814Z,2.70
2019-01-14T22:06:18.271Z,2.60
2019-01-14T22:08:45.848Z,2.90
2019-01-14T22:11:13.366Z,2.92
2019-01-14T22:13:40.800Z,2.33
2019-01-14T22:16:08.307Z,2.37
2019-01-14T22:18:35.768Z,2.47
2019-01-14T22:21:03.313Z,2.80
2019-01-14T22:23:30.811Z,2.70
2019-01-14T22:25:58.733Z,2.40
2019-01-14T22:28:26.203Z,2.77
2019-01-14T22:30:53.683Z,2.70
2019-01-14T22:33:21.183Z,2.60
2019-01-14T22:35:48.904Z,2.47
2019-01-14T22:38:16.352Z,2.90
2019-01-14T22:40:43.960Z,2.47
2019-01-14T22:43:11.502Z,2.53
2019-01-14T22:45:38.995Z,2.60
2019-01-14T22:48:06.476Z,2.90
2019-01-14T22:50:33.902Z,2.77
2019-01-14T22:53:01.451Z,2.97
2019-01-14T22:55:28.910Z,2.80
2019-01-14T22:57:56.609Z,2.60
2019-01-14T23:00:26.108Z,2.50
2019-01-14T23:02:53.566Z,2.53
2019-01-14T23:05:21.062Z,3.03
2019-01-14T23:07:48.491Z,2.33
2019-01-14T23:10:15.949Z,2.73
2019-01-14T23:12:43.377Z,2.93
2019-01-14T23:15:10.841Z,2.70
2019-01-14T23:17:38.314Z,2.77
2019-01-14T23:20:05.784Z,2.40
2019-01-14T23:22:33.219Z,2.80
2019-01-14T23:25:00.674Z,2.77
2019-01-14T23:27:28.992Z,2.95
2019-01-14T23:29:56.495Z,2.80
2019-01-14T23:32:24.059Z,2.75
2019-01-14T23:34:51.518Z,2.70
2019-01-14T23:37:18.968Z,3.03
2019-01-14T23:39:46.398Z,3.30
2019-01-14T23:42:13.815Z,2.53
2019-01-14T23:44:41.276Z,3.10
2019-01-14T23:47:08.729Z,3.15
2019-01-14T23:49:36.269Z,3.13
2019-01-14T23:52:03.770Z,3.50
2019-01-14T23:54:36.908Z,3.40
2019-01-14T23:56:59.816Z,3.70
2019-01-14T23:59:27.261Z,3.03
